Time;durP1;ratioP1;P1;durP2;ratioP2;P2;SDS_P1;SDS_P2;PMS_P1;PMS_P2;Temp;Humidity;BMP_temperature;BMP_pressure;BME280_temperature;BME280_humidity;BME280_pressure;Samples;Min_cycle;Max_cycle;Signal;HPM_P1;HPM_P2
2023/07/29 00:04:44;;;;;;;3.90;3.80;;;19.50;99.90;;;;;;10253663;28;20205;-87
2023/07/29 00:09:46;;;;;;;4.60;4.30;;;19.50;99.90;;;;;;10258894;28;20563;-87
2023/07/29 00:14:50;;;;;;;4.93;4.70;;;19.60;99.90;;;;;;10252896;28;20621;-88
2023/07/29 00:19:52;;;;;;;5.07;4.83;;;19.50;99.90;;;;;;10267686;28;21517;-87
2023/07/29 00:24:55;;;;;;;5.00;4.70;;;19.60;99.90;;;;;;10253260;28;20204;-86
2023/07/29 00:29:59;;;;;;;4.23;4.03;;;19.60;99.90;;;;;;10251603;28;20604;-87
2023/07/29 00:35:01;;;;;;;4.20;3.93;;;19.60;99.90;;;;;;10258768;28;20275;-86
2023/07/29 00:40:03;;;;;;;4.50;4.30;;;19.70;99.90;;;;;;10249632;28;20232;-86
2023/07/29 00:45:09;;;;;;;5.00;4.70;;;19.70;99.90;;;;;;10252210;28;20304;-86
2023/07/29 00:50:13;;;;;;;4.93;4.67;;;19.70;99.90;;;;;;10250257;28;20232;-86
2023/07/29 00:55:15;;;;;;;4.40;4.17;;;19.70;99.90;;;;;;10272240;28;20233;-87
2023/07/29 01:00:22;;;;;;;6.00;4.70;;;19.70;99.90;;;;;;10251859;28;20737;-87
2023/07/29 01:05:30;;;;;;;4.30;4.00;;;19.70;99.90;;;;;;10252705;28;20205;-86
2023/07/29 01:10:44;;;;;;;3.70;3.60;;;19.60;99.90;;;;;;10256686;28;20221;-86
2023/07/29 01:15:55;;;;;;;4.17;3.97;;;19.60;99.90;;;;;;10257133;28;20209;-87
2023/07/29 01:21:04;;;;;;;4.40;4.10;;;19.60;99.90;;;;;;10264146;28;20279;-86
2023/07/29 01:26:07;;;;;;;6.83;4.37;;;19.60;99.90;;;;;;10249033;28;20618;-87
2023/07/29 01:31:17;;;;;;;4.50;4.10;;;19.60;99.90;;;;;;10248263;28;20222;-85
2023/07/29 01:36:23;;;;;;;4.57;4.27;;;19.60;99.90;;;;;;10256619;28;20209;-87
2023/07/29 01:41:28;;;;;;;4.10;3.90;;;19.60;99.90;;;;;;10248201;28;20249;-86
2023/07/29 01:46:34;;;;;;;4.43;4.23;;;19.60;99.90;;;;;;10254614;28;20283;-87
2023/07/29 01:51:36;;;;;;;3.83;3.63;;;19.60;99.90;;;;;;10264113;28;20335;-86
2023/07/29 01:56:39;;;;;;;4.27;3.97;;;19.70;99.90;;;;;;10255400;28;20667;-86
2023/07/29 02:01:42;;;;;;;4.20;4.00;;;19.70;99.90;;;;;;10233180;28;20225;-85
2023/07/29 02:06:44;;;;;;;6.60;4.10;;;19.80;99.90;;;;;;10264276;28;20357;-86
2023/07/29 02:11:48;;;;;;;4.90;4.23;;;19.80;99.90;;;;;;10255584;28;20232;-88
2023/07/29 02:16:50;;;;;;;4.10;3.83;;;19.80;99.90;;;;;;10266763;28;20215;-86
2023/07/29 02:21:52;;;;;;;4.00;3.80;;;19.80;99.90;;;;;;10260818;28;20320;-86
2023/07/29 02:26:56;;;;;;;4.53;4.30;;;19.70;99.90;;;;;;10257299;28;20217;-85
2023/07/29 02:31:58;;;;;;;4.30;4.00;;;19.70;99.90;;;;;;10261050;28;20236;-85
2023/07/29 02:37:00;;;;;;;4.27;4.07;;;19.70;99.90;;;;;;10255451;28;20215;-86
2023/07/29 02:42:04;;;;;;;4.00;3.80;;;19.60;99.90;;;;;;10255138;28;20225;-86
2023/07/29 02:47:07;;;;;;;4.30;4.10;;;19.60;99.90;;;;;;10260511;28;20264;-86
2023/07/29 02:52:09;;;;;;;4.30;4.00;;;19.60;99.90;;;;;;10259552;28;20244;-86
2023/07/29 02:57:14;;;;;;;4.30;4.10;;;19.60;99.90;;;;;;10266414;28;20209;-86
2023/07/29 03:02:17;;;;;;;3.93;3.73;;;19.60;99.90;;;;;;10267811;28;20313;-86
2023/07/29 03:07:20;;;;;;;4.33;4.13;;;19.60;99.90;;;;;;10253335;28;20216;-86
2023/07/29 03:12:24;;;;;;;4.47;4.27;;;19.60;99.90;;;;;;10244601;28;20429;-87
2023/07/29 03:17:26;;;;;;;4.33;4.10;;;19.60;99.90;;;;;;10260484;28;20290;-87
2023/07/29 03:22:28;;;;;;;4.13;3.93;;;19.60;99.90;;;;;;10261624;28;21209;-85
2023/07/29 03:27:33;;;;;;;3.90;3.70;;;19.60;99.90;;;;;;10260746;28;20368;-86
2023/07/29 03:32:35;;;;;;;4.17;3.90;;;19.60;99.90;;;;;;10267529;28;20232;-87
2023/07/29 03:37:37;;;;;;;4.13;3.93;;;19.60;99.90;;;;;;10249105;28;20684;-87
2023/07/29 03:42:41;;;;;;;4.00;3.80;;;19.60;99.90;;;;;;10258760;28;20209;-86
2023/07/29 03:47:43;;;;;;;4.10;3.90;;;19.60;99.90;;;;;;10252822;28;20298;-86
2023/07/29 03:52:45;;;;;;;4.37;4.07;;;19.60;99.90;;;;;;10266993;28;20689;-87
2023/07/29 03:57:49;;;;;;;4.50;4.20;;;19.60;99.90;;;;;;10252451;28;20205;-85
2023/07/29 04:02:51;;;;;;;4.23;3.93;;;19.70;99.90;;;;;;10260189;28;20669;-85
2023/07/29 04:07:55;;;;;;;5.10;4.60;;;19.70;99.90;;;;;;10266934;28;20747;-85
2023/07/29 04:12:58;;;;;;;6.23;3.90;;;19.70;99.90;;;;;;10270301;28;20225;-86
2023/07/29 04:18:01;;;;;;;4.50;4.30;;;19.60;99.90;;;;;;10273836;28;20818;-86
2023/07/29 04:23:03;;;;;;;3.83;3.63;;;19.50;99.90;;;;;;10261730;28;20936;-84
2023/07/29 04:28:06;;;;;;;4.63;4.33;;;19.40;99.90;;;;;;10257191;28;20224;-87
2023/07/29 04:33:08;;;;;;;4.50;4.20;;;19.40;99.90;;;;;;10258408;28;20236;-87
2023/07/29 04:38:13;;;;;;;5.47;4.10;;;19.40;99.90;;;;;;10263445;28;20284;-85
2023/07/29 04:43:17;;;;;;;5.70;5.40;;;19.30;99.90;;;;;;10253302;28;20272;-86
2023/07/29 04:48:19;;;;;;;6.70;6.30;;;19.20;99.90;;;;;;10256925;28;20594;-86
2023/07/29 04:53:21;;;;;;;9.27;8.57;;;19.10;99.90;;;;;;10270537;28;20312;-86
2023/07/29 04:58:25;;;;;;;9.10;8.60;;;19.10;99.90;;;;;;10254691;28;20931;-85
2023/07/29 05:03:27;;;;;;;11.97;9.33;;;19.10;99.90;;;;;;10259041;28;20665;-85
2023/07/29 05:08:29;;;;;;;8.73;8.33;;;19.00;99.90;;;;;;10280656;28;20887;-87
2023/07/29 05:13:33;;;;;;;9.07;8.63;;;19.00;99.90;;;;;;10277077;28;20700;-85
2023/07/29 05:18:35;;;;;;;9.80;9.30;;;19.00;99.90;;;;;;10273965;28;20242;-87
2023/07/29 05:23:37;;;;;;;7.00;6.57;;;19.00;99.90;;;;;;10249214;28;20201;-88
2023/07/29 05:28:41;;;;;;;8.13;7.63;;;19.00;99.90;;;;;;10257080;28;20240;-88
2023/07/29 05:33:43;;;;;;;8.80;8.27;;;19.00;99.90;;;;;;10237559;28;20225;-86
2023/07/29 05:38:46;;;;;;;6.53;6.23;;;19.00;99.90;;;;;;10254696;28;20229;-86
2023/07/29 05:43:50;;;;;;;9.17;8.63;;;19.00;99.90;;;;;;10236193;28;20205;-88
2023/07/29 05:48:52;;;;;;;8.30;7.80;;;19.00;99.90;;;;;;10255771;28;20236;-86
2023/07/29 05:53:54;;;;;;;8.80;8.30;;;19.10;99.90;;;;;;10261124;28;20688;-86
2023/07/29 05:58:58;;;;;;;8.80;8.30;;;19.20;99.90;;;;;;10263623;28;20259;-86
2023/07/29 06:04:01;;;;;;;8.83;8.33;;;19.40;99.90;;;;;;10261807;28;20205;-88
2023/07/29 06:09:04;;;;;;;8.27;7.60;;;19.50;99.90;;;;;;10246979;28;20688;-87
2023/07/29 06:14:08;;;;;;;8.37;7.87;;;19.70;99.90;;;;;;10246585;28;20692;-88
2023/07/29 06:19:10;;;;;;;9.80;9.20;;;19.90;99.90;;;;;;10260544;28;20241;-87
2023/07/29 06:24:12;;;;;;;8.87;8.03;;;20.10;99.90;;;;;;10278397;28;20204;-88
2023/07/29 06:29:16;;;;;;;8.53;7.93;;;20.30;99.90;;;;;;10259198;28;20362;-87
2023/07/29 06:34:18;;;;;;;7.80;7.40;;;20.50;99.90;;;;;;10260564;28;20229;-88
2023/07/29 06:39:20;;;;;;;7.10;6.50;;;20.70;99.90;;;;;;10289016;28;20253;-87
2023/07/29 06:44:24;;;;;;;8.37;7.97;;;20.80;99.90;;;;;;10275604;28;20285;-88
2023/07/29 06:49:28;;;;;;;7.47;7.17;;;20.80;99.90;;;;;;10259371;28;20226;-87
2023/07/29 06:54:33;;;;;;;7.83;7.53;;;20.80;99.90;;;;;;10261084;28;20495;-86
2023/07/29 06:59:37;;;;;;;6.70;6.30;;;20.80;99.90;;;;;;10266448;28;20233;-85
2023/07/29 07:04:39;;;;;;;6.57;6.10;;;20.80;99.90;;;;;;10257419;28;20201;-85
2023/07/29 07:10:02;;;;;;;6.23;5.93;;;20.70;99.90;;;;;;10261778;28;20237;-87
2023/07/29 07:15:09;;;;;;;7.13;6.73;;;20.50;99.90;;;;;;10249531;28;20216;-89
2023/07/29 07:20:12;;;;;;;5.87;5.67;;;20.30;99.90;;;;;;10268139;28;20323;-85
2023/07/29 07:25:15;;;;;;;6.73;6.30;;;20.00;99.90;;;;;;10268249;28;20205;-86
2023/07/29 07:30:19;;;;;;;5.53;5.33;;;19.90;99.90;;;;;;10253623;28;20239;-85
2023/07/29 07:35:23;;;;;;;6.20;5.90;;;19.80;99.90;;;;;;10256699;28;20313;-88
2023/07/29 07:40:26;;;;;;;10.70;6.37;;;19.80;99.90;;;;;;10273357;28;20221;-88
2023/07/29 07:45:30;;;;;;;7.47;6.77;;;19.80;99.90;;;;;;10240517;28;20628;-87
2023/07/29 07:50:38;;;;;;;7.40;7.10;;;19.90;99.90;;;;;;10272157;28;20619;-88
2023/07/29 07:55:48;;;;;;;7.20;6.80;;;19.90;99.90;;;;;;10258671;28;20232;-86
2023/07/29 08:01:06;;;;;;;6.60;6.30;;;19.90;99.90;;;;;;10257648;28;20897;-86
2023/07/29 08:06:16;;;;;;;7.00;6.70;;;19.90;99.90;;;;;;10257631;28;20200;-87
2023/07/29 08:11:27;;;;;;;5.73;5.50;;;20.10;99.90;;;;;;10256559;28;20314;-86
2023/07/29 08:16:38;;;;;;;5.17;4.97;;;20.30;99.90;;;;;;10258221;28;20208;-87
2023/07/29 08:21:43;;;;;;;5.70;5.20;;;20.50;99.90;;;;;;10256037;28;20566;-87
2023/07/29 08:26:45;;;;;;;6.23;4.90;;;20.80;99.90;;;;;;10252331;28;20209;-87
2023/07/29 08:31:51;;;;;;;4.53;4.33;;;21.10;99.90;;;;;;10256276;28;20740;-86
2023/07/29 08:36:53;;;;;;;4.77;4.57;;;21.20;99.90;;;;;;10252901;28;20315;-87
2023/07/29 08:42:02;;;;;;;5.20;5.00;;;21.40;99.90;;;;;;10254292;28;20225;-87
2023/07/29 08:47:06;;;;;;;4.73;4.43;;;21.50;99.90;;;;;;10253873;28;20219;-87
2023/07/29 08:52:09;;;;;;;4.70;4.50;;;21.80;99.90;;;;;;10252970;28;20649;-86
2023/07/29 08:57:12;;;;;;;4.70;4.50;;;21.90;99.90;;;;;;10269357;28;20210;-87
2023/07/29 09:02:16;;;;;;;4.20;3.90;;;22.40;99.90;;;;;;10251123;28;20232;-87
2023/07/29 09:07:19;;;;;;;4.00;3.80;;;23.00;99.90;;;;;;10252409;28;20204;-87
2023/07/29 09:12:22;;;;;;;3.83;3.50;;;23.70;99.90;;;;;;10257870;28;20225;-87
2023/07/29 09:17:26;;;;;;;4.83;3.03;;;24.00;99.90;;;;;;10252997;28;20237;-89
2023/07/29 09:22:28;;;;;;;2.50;2.40;;;24.10;99.90;;;;;;10273317;23;20874;-81
2023/07/29 09:27:32;;;;;;;3.20;3.10;;;24.20;99.90;;;;;;10260607;28;20228;-81
2023/07/29 09:32:40;;;;;;;2.80;2.60;;;24.20;99.90;;;;;;10278501;28;20264;-81
2023/07/29 09:37:42;;;;;;;3.73;3.53;;;24.20;99.90;;;;;;10263633;28;20205;-81
2023/07/29 09:42:50;;;;;;;3.47;3.10;;;24.30;99.90;;;;;;10262758;28;20248;-80
2023/07/29 09:47:54;;;;;;;3.70;3.50;;;24.50;99.90;;;;;;10245057;28;20215;-81
2023/07/29 09:52:58;;;;;;;6.90;4.43;;;24.60;99.90;;;;;;10261600;28;20732;-82
2023/07/29 09:58:03;;;;;;;3.17;3.07;;;24.80;99.90;;;;;;10262686;28;20209;-81
2023/07/29 10:03:07;;;;;;;2.07;1.97;;;25.00;99.90;;;;;;10261997;28;20232;-80
2023/07/29 10:08:11;;;;;;;3.63;2.00;;;25.20;99.90;;;;;;10260903;28;20205;-81
2023/07/29 10:13:13;;;;;;;3.00;2.80;;;25.90;99.90;;;;;;10259687;28;20229;-81
2023/07/29 10:18:17;;;;;;;3.10;2.70;;;26.70;99.90;;;;;;10275009;28;20343;-81
2023/07/29 10:23:22;;;;;;;2.07;1.97;;;27.20;99.90;;;;;;10259666;28;20607;-81
2023/07/29 10:28:27;;;;;;;1.80;1.70;;;27.40;99.90;;;;;;10258680;28;20213;-82
2023/07/29 10:33:32;;;;;;;2.10;2.00;;;27.40;99.90;;;;;;10273176;28;20233;-81
2023/07/29 10:38:35;;;;;;;2.27;2.17;;;27.20;99.90;;;;;;10275153;28;20356;-81
2023/07/29 10:43:38;;;;;;;2.17;1.97;;;26.90;99.90;;;;;;10260938;28;20242;-80
2023/07/29 10:48:43;;;;;;;2.10;1.83;;;26.60;99.90;;;;;;10251591;28;20212;-81
2023/07/29 10:53:45;;;;;;;2.27;1.90;;;26.40;99.90;;;;;;10270772;28;20283;-80
2023/07/29 10:58:47;;;;;;;2.37;2.27;;;26.20;99.90;;;;;;10259584;28;20248;-81
2023/07/29 11:04:24;;;;;;;1.97;1.87;;;26.00;99.90;;;;;;10257332;28;20362;-80
2023/07/29 11:09:40;;;;;;;2.37;2.27;;;25.80;99.90;;;;;;10257945;28;20228;-80
2023/07/29 11:14:42;;;;;;;2.43;2.33;;;25.80;99.90;;;;;;10259677;28;20220;-81
2023/07/29 11:19:47;;;;;;;1.97;1.77;;;25.80;99.90;;;;;;10258276;28;20704;-80
2023/07/29 11:24:50;;;;;;;2.63;2.43;;;25.70;99.90;;;;;;10255210;28;20233;-80
2023/07/29 11:29:57;;;;;;;2.23;2.13;;;25.70;99.90;;;;;;10250364;28;20242;-81
2023/07/29 11:35:04;;;;;;;1.97;1.87;;;25.80;99.90;;;;;;10253737;28;20225;-81
2023/07/29 11:40:08;;;;;;;2.50;2.30;;;25.70;99.90;;;;;;10256329;28;20356;-80
2023/07/29 11:45:11;;;;;;;2.97;2.30;;;25.70;99.90;;;;;;10253630;28;20284;-81
2023/07/29 11:50:16;;;;;;;2.60;2.40;;;25.70;99.90;;;;;;10268868;28;20499;-80
2023/07/29 11:55:19;;;;;;;3.33;2.50;;;25.60;99.90;;;;;;10255494;28;20243;-80
2023/07/29 12:00:22;;;;;;;2.40;2.20;;;25.70;99.90;;;;;;10256126;28;20239;-81
2023/07/29 12:05:26;;;;;;;2.90;2.60;;;25.80;99.90;;;;;;10258203;28;20205;-81
2023/07/29 12:10:28;;;;;;;2.70;1.90;;;25.80;99.90;;;;;;10259803;28;20224;-80
2023/07/29 12:15:31;;;;;;;2.93;2.73;;;25.80;99.90;;;;;;10265598;28;20581;-80
2023/07/29 12:20:35;;;;;;;2.20;2.10;;;25.80;99.90;;;;;;10252771;28;20233;-80
2023/07/29 12:25:37;;;;;;;2.40;2.30;;;25.70;99.90;;;;;;10269917;28;20292;-81
2023/07/29 12:30:43;;;;;;;3.00;2.80;;;25.60;99.90;;;;;;10254571;28;20221;-81
2023/07/29 12:35:46;;;;;;;2.93;2.33;;;25.50;99.90;;;;;;10257513;28;20229;-79
2023/07/29 12:40:48;;;;;;;3.23;2.97;;;25.60;99.90;;;;;;10253489;28;20611;-78
2023/07/29 12:45:51;;;;;;;3.13;2.93;;;25.50;99.90;;;;;;10256772;28;20646;-79
2023/07/29 12:50:54;;;;;;;2.93;2.83;;;25.50;99.90;;;;;;10254686;28;20265;-81
2023/07/29 12:55:56;;;;;;;3.03;2.83;;;25.40;99.90;;;;;;10257943;28;20230;-80
2023/07/29 13:00:58;;;;;;;4.27;2.80;;;25.30;99.90;;;;;;10269211;28;20745;-81
2023/07/29 13:06:01;;;;;;;2.90;2.37;;;25.20;99.90;;;;;;10261138;28;20895;-80
2023/07/29 13:11:04;;;;;;;2.50;2.40;;;25.20;99.90;;;;;;10263969;28;20727;-79
2023/07/29 13:16:06;;;;;;;2.60;2.40;;;25.20;99.90;;;;;;10264592;28;20256;-79
2023/07/29 13:21:10;;;;;;;3.00;2.80;;;25.20;99.90;;;;;;10263665;28;20236;-79
2023/07/29 13:26:12;;;;;;;2.50;2.40;;;25.20;99.90;;;;;;10253232;28;20272;-79
2023/07/29 13:31:14;;;;;;;2.30;2.10;;;25.10;99.90;;;;;;10251817;28;20231;-79
2023/07/29 13:36:17;;;;;;;2.40;2.30;;;25.10;99.90;;;;;;10249101;28;20235;-79
2023/07/29 13:41:19;;;;;;;4.60;2.47;;;25.10;99.90;;;;;;10255137;28;20221;-79
2023/07/29 13:46:22;;;;;;;3.00;2.80;;;25.00;99.90;;;;;;10251831;28;20260;-79
2023/07/29 13:51:25;;;;;;;2.57;2.43;;;25.10;99.90;;;;;;10257758;28;20233;-81
2023/07/29 13:56:28;;;;;;;2.23;2.13;;;25.10;99.90;;;;;;10256893;28;20329;-80
2023/07/29 14:01:30;;;;;;;2.60;2.40;;;25.30;99.90;;;;;;10256835;28;20946;-80
2023/07/29 14:06:34;;;;;;;2.40;2.30;;;25.30;99.90;;;;;;10273566;28;20236;-80
2023/07/29 14:11:36;;;;;;;2.60;2.10;;;25.30;99.90;;;;;;10259403;28;20726;-79
2023/07/29 14:16:39;;;;;;;2.50;2.40;;;25.30;99.90;;;;;;10272057;28;20232;-79
2023/07/29 14:21:42;;;;;;;2.57;2.37;;;25.40;99.90;;;;;;10273146;28;20684;-80
2023/07/29 14:26:44;;;;;;;2.47;2.37;;;25.40;99.90;;;;;;10270667;28;20857;-81
2023/07/29 14:31:46;;;;;;;3.10;2.90;;;25.50;99.90;;;;;;10265622;28;20246;-80
2023/07/29 14:36:50;;;;;;;3.10;2.90;;;25.40;99.90;;;;;;10262999;28;20229;-80
2023/07/29 14:41:52;;;;;;;2.87;2.67;;;25.30;99.90;;;;;;10268464;28;20232;-81
2023/07/29 14:46:54;;;;;;;5.93;2.60;;;25.10;99.90;;;;;;10274899;28;20204;-81
2023/07/29 14:51:58;;;;;;;2.87;2.67;;;25.00;99.90;;;;;;10265045;28;21627;-81
2023/07/29 14:57:00;;;;;;;2.60;2.40;;;24.80;99.90;;;;;;10266022;28;20331;-80
2023/07/29 15:02:02;;;;;;;2.40;2.30;;;24.70;99.90;;;;;;10266814;28;20233;-80
2023/07/29 15:07:06;;;;;;;2.57;2.47;;;24.60;99.90;;;;;;10274461;28;20232;-79
2023/07/29 15:12:09;;;;;;;2.50;2.37;;;24.70;99.90;;;;;;10264681;28;20240;-80
2023/07/29 15:17:11;;;;;;;3.00;2.80;;;24.80;99.90;;;;;;10262931;28;20241;-80
2023/07/29 15:22:15;;;;;;;2.90;2.70;;;24.80;99.90;;;;;;10275378;23;20303;-87
2023/07/29 15:27:18;;;;;;;2.70;2.50;;;24.80;99.90;;;;;;10254172;28;20332;-86
2023/07/29 15:32:20;;;;;;;2.70;2.50;;;24.80;99.90;;;;;;10254752;28;20315;-86
2023/07/29 15:37:26;;;;;;;3.27;3.00;;;24.70;99.90;;;;;;10246515;28;20232;-87
2023/07/29 15:42:28;;;;;;;2.40;2.20;;;24.70;99.90;;;;;;10255463;28;20240;-86
2023/07/29 15:47:30;;;;;;;2.37;2.27;;;24.70;99.90;;;;;;10252849;28;20316;-88
2023/07/29 15:52:34;;;;;;;3.30;3.10;;;24.80;99.90;;;;;;10252719;28;20228;-86
2023/07/29 15:57:36;;;;;;;2.70;2.50;;;24.80;99.90;;;;;;10251629;28;20292;-86
2023/07/29 16:02:38;;;;;;;3.00;2.80;;;24.80;99.90;;;;;;10251434;28;20228;-86
2023/07/29 16:07:41;;;;;;;2.80;2.70;;;24.80;99.90;;;;;;10251154;28;20741;-86
2023/07/29 16:12:43;;;;;;;2.90;2.70;;;24.80;99.90;;;;;;10251212;28;20280;-87
2023/07/29 16:17:49;;;;;;;2.60;2.40;;;24.90;99.90;;;;;;10255772;28;20225;-87
2023/07/29 16:22:53;;;;;;;2.40;2.20;;;24.80;99.90;;;;;;10250550;28;20247;-90
2023/07/29 16:27:56;;;;;;;3.17;2.97;;;24.80;99.90;;;;;;10265878;28;20388;-86
2023/07/29 16:32:58;;;;;;;2.33;2.23;;;24.80;99.90;;;;;;10250365;28;20555;-86
2023/07/29 16:38:02;;;;;;;2.90;2.70;;;24.90;99.90;;;;;;10267371;28;20225;-87
2023/07/29 16:43:04;;;;;;;2.90;2.70;;;24.90;99.90;;;;;;10248250;28;20224;-87
2023/07/29 16:48:06;;;;;;;2.73;2.53;;;25.00;99.90;;;;;;10249790;28;20278;-87
2023/07/29 16:53:10;;;;;;;2.20;2.07;;;24.90;99.90;;;;;;10236909;28;21209;-88
2023/07/29 16:58:12;;;;;;;2.30;2.10;;;24.80;99.90;;;;;;10244106;28;20236;-87
2023/07/29 17:03:14;;;;;;;2.53;2.33;;;24.70;99.90;;;;;;10269213;28;20236;-87
2023/07/29 17:08:17;;;;;;;2.23;2.13;;;24.70;99.90;;;;;;10249124;28;20546;-87
2023/07/29 17:13:20;;;;;;;2.43;2.33;;;24.70;99.90;;;;;;10255226;28;20225;-87
2023/07/29 17:18:22;;;;;;;3.97;3.67;;;24.60;99.90;;;;;;10247703;28;20389;-89
2023/07/29 17:23:25;;;;;;;3.23;2.70;;;24.50;99.90;;;;;;10248907;28;20236;-87
2023/07/29 17:28:27;;;;;;;3.13;2.93;;;24.40;99.90;;;;;;10264722;28;20208;-86
2023/07/29 17:33:31;;;;;;;2.70;2.33;;;24.40;99.90;;;;;;10249678;28;20224;-87
2023/07/29 17:38:35;;;;;;;2.27;2.17;;;24.30;99.90;;;;;;10263330;28;20346;-86
2023/07/29 17:43:43;;;;;;;2.10;1.90;;;24.20;99.90;;;;;;10263598;28;20256;-87
2023/07/29 17:48:46;;;;;;;2.40;2.30;;;23.90;99.90;;;;;;10254400;28;20311;-87
2023/07/29 17:53:49;;;;;;;2.60;2.40;;;23.60;99.90;;;;;;10288941;28;20275;-86
2023/07/29 17:58:51;;;;;;;3.80;3.00;;;23.40;99.90;;;;;;10262998;28;20217;-88
2023/07/29 18:03:53;;;;;;;3.00;2.80;;;23.30;99.90;;;;;;10268968;28;20225;-87
2023/07/29 18:08:57;;;;;;;2.93;2.73;;;23.20;99.90;;;;;;10268735;28;20215;-86
2023/07/29 18:13:59;;;;;;;3.20;3.00;;;23.10;99.90;;;;;;10268915;28;20297;-87
2023/07/29 18:19:01;;;;;;;3.33;3.03;;;23.00;99.90;;;;;;10269403;28;20617;-86
2023/07/29 18:24:05;;;;;;;7.40;4.40;;;23.00;99.90;;;;;;10266189;28;20233;-85
2023/07/29 18:29:07;;;;;;;2.53;2.43;;;23.00;99.90;;;;;;10275456;28;20212;-88
2023/07/29 18:34:10;;;;;;;4.10;3.40;;;22.90;99.90;;;;;;10266295;28;20285;-86
2023/07/29 18:39:13;;;;;;;6.20;4.60;;;22.90;99.90;;;;;;10264744;28;20213;-86
2023/07/29 18:44:15;;;;;;;6.93;5.70;;;22.80;99.90;;;;;;10266349;28;20217;-88
2023/07/29 18:49:17;;;;;;;7.43;6.60;;;22.80;99.90;;;;;;10268661;28;21175;-86
2023/07/29 18:54:21;;;;;;;5.67;5.07;;;22.70;99.90;;;;;;10279931;28;20292;-86
2023/07/29 18:59:23;;;;;;;4.40;4.10;;;22.60;99.90;;;;;;10268539;28;20251;-86
2023/07/29 19:04:25;;;;;;;6.73;5.93;;;22.50;99.90;;;;;;10266737;28;20251;-85
2023/07/29 19:09:29;;;;;;;5.00;4.60;;;22.40;99.90;;;;;;10263624;28;21610;-85
2023/07/29 19:14:31;;;;;;;3.27;3.07;;;22.40;99.90;;;;;;10264589;28;20220;-86
2023/07/29 19:19:33;;;;;;;7.10;4.30;;;22.30;99.90;;;;;;10279159;28;20579;-87
2023/07/29 19:24:36;;;;;;;4.70;4.30;;;22.20;99.90;;;;;;10260295;28;20704;-86
2023/07/29 19:29:39;;;;;;;4.80;4.40;;;22.10;99.90;;;;;;10265416;28;20283;-86
2023/07/29 19:34:41;;;;;;;4.27;3.83;;;22.10;99.90;;;;;;10261787;28;20220;-86
2023/07/29 19:39:44;;;;;;;3.80;3.50;;;22.10;99.90;;;;;;10279026;28;20768;-87
2023/07/29 19:44:46;;;;;;;4.30;4.03;;;22.00;99.90;;;;;;10268671;28;20205;-85
2023/07/29 19:49:49;;;;;;;3.80;3.47;;;22.00;99.90;;;;;;10262939;28;20602;-87
2023/07/29 19:54:52;;;;;;;4.43;4.13;;;21.90;99.90;;;;;;10270956;28;20228;-86
2023/07/29 19:59:54;;;;;;;3.80;3.60;;;21.90;99.90;;;;;;10266876;28;20241;-87
2023/07/29 20:04:57;;;;;;;3.43;3.23;;;21.90;99.90;;;;;;10266482;28;20728;-88
2023/07/29 20:10:00;;;;;;;3.80;3.60;;;21.90;99.90;;;;;;10265116;28;20238;-88
2023/07/29 20:15:02;;;;;;;4.30;3.90;;;21.80;99.90;;;;;;10265188;28;21152;-85
2023/07/29 20:20:06;;;;;;;4.10;3.80;;;21.80;99.90;;;;;;10265269;28;20250;-86
2023/07/29 20:25:10;;;;;;;4.07;3.80;;;21.80;99.90;;;;;;10261984;28;20268;-86
2023/07/29 20:30:12;;;;;;;4.00;3.77;;;21.80;99.90;;;;;;10270398;28;20707;-87
2023/07/29 20:35:14;;;;;;;5.10;4.70;;;21.70;99.90;;;;;;10284539;28;20240;-89
2023/07/29 20:40:17;;;;;;;5.30;4.90;;;21.70;99.90;;;;;;10276758;28;20913;-88
2023/07/29 20:45:20;;;;;;;4.10;3.70;;;21.70;99.90;;;;;;10266879;28;20209;-87
2023/07/29 20:50:23;;;;;;;4.40;4.00;;;21.70;99.90;;;;;;10266999;28;20652;-87
2023/07/29 20:55:26;;;;;;;4.23;3.93;;;21.70;99.90;;;;;;10280553;28;20267;-88
2023/07/29 21:00:29;;;;;;;7.30;3.80;;;21.70;99.90;;;;;;10262368;28;20259;-86
2023/07/29 21:05:34;;;;;;;4.60;4.30;;;21.70;99.90;;;;;;10261777;28;20290;-86
2023/07/29 21:10:37;;;;;;;4.40;4.10;;;21.60;99.90;;;;;;10268210;28;20225;-86
2023/07/29 21:15:39;;;;;;;4.43;4.13;;;21.60;99.90;;;;;;10268463;28;20241;-87
2023/07/29 21:20:41;;;;;;;4.60;4.20;;;21.60;99.90;;;;;;10262059;28;20406;-87
2023/07/29 21:25:48;;;;;;;3.87;3.67;;;21.60;99.90;;;;;;10274969;28;20251;-86
2023/07/29 21:30:50;;;;;;;4.57;4.27;;;21.60;99.90;;;;;;10258295;28;20236;-86
2023/07/29 21:35:52;;;;;;;4.87;4.43;;;21.60;99.90;;;;;;10273755;28;20724;-87
2023/07/29 21:40:56;;;;;;;4.33;4.07;;;21.60;99.90;;;;;;10263207;28;20240;-85
2023/07/29 21:45:58;;;;;;;6.70;3.97;;;21.70;99.90;;;;;;10264732;28;20209;-86
2023/07/29 21:51:03;;;;;;;3.93;3.63;;;21.70;99.90;;;;;;10263461;28;20233;-87
2023/07/29 21:56:07;;;;;;;4.40;4.10;;;21.70;99.90;;;;;;10280073;28;20256;-89
2023/07/29 22:01:09;;;;;;;4.20;3.90;;;21.70;99.90;;;;;;10280095;28;20236;-86
2023/07/29 22:06:11;;;;;;;4.60;3.60;;;21.70;99.90;;;;;;10278522;28;20288;-86
2023/07/29 22:11:15;;;;;;;4.40;4.00;;;21.70;99.90;;;;;;10265669;28;20224;-86
2023/07/29 22:16:17;;;;;;;4.23;3.93;;;21.70;99.90;;;;;;10262245;28;20308;-86
2023/07/29 22:21:20;;;;;;;4.50;4.10;;;21.70;99.90;;;;;;10262117;28;20820;-86
2023/07/29 22:26:23;;;;;;;6.00;4.87;;;21.80;99.90;;;;;;10267115;28;20228;-85
2023/07/29 22:31:25;;;;;;;4.00;3.80;;;21.80;99.90;;;;;;10262554;28;20230;-85
2023/07/29 22:36:27;;;;;;;7.20;6.50;;;21.80;99.90;;;;;;10266894;28;20213;-87
2023/07/29 22:41:31;;;;;;;8.70;7.90;;;21.80;99.90;;;;;;10262510;28;20224;-87
2023/07/29 22:46:33;;;;;;;12.77;11.83;;;21.60;99.90;;;;;;10268039;28;20701;-86
2023/07/29 22:51:35;;;;;;;12.57;11.60;;;21.20;99.90;;;;;;10286218;28;20754;-87
2023/07/29 22:56:39;;;;;;;12.77;12.00;;;20.90;99.90;;;;;;10276522;28;20712;-88
2023/07/29 23:01:41;;;;;;;12.73;12.00;;;20.60;99.90;;;;;;10264559;28;20636;-86
2023/07/29 23:06:43;;;;;;;14.87;13.70;;;20.50;99.90;;;;;;10267501;28;20228;-85
2023/07/29 23:11:47;;;;;;;13.27;12.07;;;20.40;99.90;;;;;;10280449;28;20225;-86
2023/07/29 23:16:49;;;;;;;11.70;10.80;;;20.40;99.90;;;;;;10290083;28;20232;-88
2023/07/29 23:21:51;;;;;;;11.00;10.30;;;20.40;99.90;;;;;;10273559;28;20233;-86
2023/07/29 23:26:54;;;;;;;14.30;12.17;;;20.30;99.90;;;;;;10283918;28;20336;-86
2023/07/29 23:31:56;;;;;;;13.30;12.10;;;20.20;99.90;;;;;;10261628;28;20229;-84
2023/07/29 23:36:58;;;;;;;16.33;14.57;;;20.20;99.90;;;;;;10282473;28;20256;-86
2023/07/29 23:42:02;;;;;;;14.17;13.27;;;20.20;99.90;;;;;;10275291;28;21254;-86
2023/07/29 23:47:04;;;;;;;12.00;11.30;;;20.20;99.90;;;;;;10285101;28;20312;-86
2023/07/29 23:52:07;;;;;;;11.30;10.70;;;20.00;99.90;;;;;;10273733;28;20918;-86
2023/07/29 23:57:10;;;;;;;12.47;11.67;;;19.80;99.90;;;;;;10273770;28;20224;-85
